sensor_id;sensor_type;location;lat;lon;timestamp;P1;durP1;ratioP1;P2;durP2;ratioP2
58260;SDS011;44058;52.898;6.502;2023-12-20T00:01:50;9.32;;;1.75;;
58260;SDS011;44058;52.898;6.502;2023-12-20T00:04:16;12.50;;;2.10;;
58260;SDS011;44058;52.898;6.502;2023-12-20T00:06:42;10.30;;;1.60;;
58260;SDS011;44058;52.898;6.502;2023-12-20T00:09:09;6.82;;;1.65;;
58260;SDS011;44058;52.898;6.502;2023-12-20T00:11:35;11.95;;;1.70;;
58260;SDS011;44058;52.898;6.502;2023-12-20T00:14:01;13.63;;;2.30;;
58260;SDS011;44058;52.898;6.502;2023-12-20T00:16:27;15.77;;;2.20;;
58260;SDS011;44058;52.898;6.502;2023-12-20T00:18:53;12.52;;;2.10;;
58260;SDS011;44058;52.898;6.502;2023-12-20T00:21:19;9.95;;;1.73;;
58260;SDS011;44058;52.898;6.502;2023-12-20T00:23:45;7.57;;;1.58;;
58260;SDS011;44058;52.898;6.502;2023-12-20T00:26:11;8.60;;;1.77;;
58260;SDS011;44058;52.898;6.502;2023-12-20T00:28:37;7.80;;;1.77;;
58260;SDS011;44058;52.898;6.502;2023-12-20T00:31:03;8.80;;;1.85;;
58260;SDS011;44058;52.898;6.502;2023-12-20T00:33:30;12.60;;;1.60;;
58260;SDS011;44058;52.898;6.502;2023-12-20T00:35:56;13.95;;;1.90;;
58260;SDS011;44058;52.898;6.502;2023-12-20T00:38:22;9.80;;;1.70;;
58260;SDS011;44058;52.898;6.502;2023-12-20T00:40:48;11.57;;;1.75;;
58260;SDS011;44058;52.898;6.502;2023-12-20T00:43:15;7.65;;;1.50;;
58260;SDS011;44058;52.898;6.502;2023-12-20T00:45:41;7.93;;;1.70;;
58260;SDS011;44058;52.898;6.502;2023-12-20T00:48:08;12.32;;;1.95;;
58260;SDS011;44058;52.898;6.502;2023-12-20T00:50:34;11.82;;;1.60;;
58260;SDS011;44058;52.898;6.502;2023-12-20T00:53:00;7.03;;;1.38;;
58260;SDS011;44058;52.898;6.502;2023-12-20T00:55:26;9.25;;;1.70;;
58260;SDS011;44058;52.898;6.502;2023-12-20T00:57:53;11.20;;;2.30;;
58260;SDS011;44058;52.898;6.502;2023-12-20T01:00:19;15.00;;;2.42;;
58260;SDS011;44058;52.898;6.502;2023-12-20T01:02:45;8.50;;;1.55;;
58260;SDS011;44058;52.898;6.502;2023-12-20T01:05:14;13.10;;;2.30;;
58260;SDS011;44058;52.898;6.502;2023-12-20T01:07:40;9.52;;;1.60;;
58260;SDS011;44058;52.898;6.502;2023-12-20T01:10:06;8.50;;;1.63;;
58260;SDS011;44058;52.898;6.502;2023-12-20T01:12:33;10.75;;;1.90;;
58260;SDS011;44058;52.898;6.502;2023-12-20T01:14:59;7.85;;;1.58;;
58260;SDS011;44058;52.898;6.502;2023-12-20T01:17:25;8.77;;;1.70;;
58260;SDS011;44058;52.898;6.502;2023-12-20T01:19:51;11.65;;;1.80;;
58260;SDS011;44058;52.898;6.502;2023-12-20T01:22:18;9.63;;;1.83;;
58260;SDS011;44058;52.898;6.502;2023-12-20T01:24:44;10.90;;;1.60;;
58260;SDS011;44058;52.898;6.502;2023-12-20T01:27:10;9.38;;;1.80;;
58260;SDS011;44058;52.898;6.502;2023-12-20T01:29:36;6.05;;;1.60;;
58260;SDS011;44058;52.898;6.502;2023-12-20T01:32:02;13.77;;;2.20;;
58260;SDS011;44058;52.898;6.502;2023-12-20T01:34:28;13.80;;;2.42;;
58260;SDS011;44058;52.898;6.502;2023-12-20T01:36:54;12.52;;;2.00;;
58260;SDS011;44058;52.898;6.502;2023-12-20T01:39:21;8.73;;;2.05;;
58260;SDS011;44058;52.898;6.502;2023-12-20T01:41:47;12.45;;;2.67;;
58260;SDS011;44058;52.898;6.502;2023-12-20T01:44:13;12.60;;;2.35;;
58260;SDS011;44058;52.898;6.502;2023-12-20T01:46:39;12.90;;;2.13;;
58260;SDS011;44058;52.898;6.502;2023-12-20T01:49:07;13.35;;;2.10;;
58260;SDS011;44058;52.898;6.502;2023-12-20T01:51:33;12.82;;;2.20;;
58260;SDS011;44058;52.898;6.502;2023-12-20T01:53:59;10.55;;;2.42;;
58260;SDS011;44058;52.898;6.502;2023-12-20T01:56:26;10.38;;;1.83;;
58260;SDS011;44058;52.898;6.502;2023-12-20T01:58:53;20.42;;;2.35;;
58260;SDS011;44058;52.898;6.502;2023-12-20T02:01:19;9.57;;;2.20;;
58260;SDS011;44058;52.898;6.502;2023-12-20T02:03:45;17.60;;;2.30;;
58260;SDS011;44058;52.898;6.502;2023-12-20T02:06:11;10.45;;;1.90;;
58260;SDS011;44058;52.898;6.502;2023-12-20T02:08:37;12.93;;;2.17;;
58260;SDS011;44058;52.898;6.502;2023-12-20T02:11:04;15.65;;;2.10;;
58260;SDS011;44058;52.898;6.502;2023-12-20T02:13:30;18.38;;;2.40;;
58260;SDS011;44058;52.898;6.502;2023-12-20T02:15:57;12.23;;;2.78;;
58260;SDS011;44058;52.898;6.502;2023-12-20T02:18:23;15.07;;;2.70;;
58260;SDS011;44058;52.898;6.502;2023-12-20T02:20:49;16.50;;;2.20;;
58260;SDS011;44058;52.898;6.502;2023-12-20T02:23:15;18.15;;;2.53;;
58260;SDS011;44058;52.898;6.502;2023-12-20T02:25:41;13.10;;;2.47;;
58260;SDS011;44058;52.898;6.502;2023-12-20T02:28:08;12.57;;;2.22;;
58260;SDS011;44058;52.898;6.502;2023-12-20T02:30:34;13.55;;;2.58;;
58260;SDS011;44058;52.898;6.502;2023-12-20T02:33:00;10.77;;;2.13;;
58260;SDS011;44058;52.898;6.502;2023-12-20T02:35:27;11.50;;;2.20;;
58260;SDS011;44058;52.898;6.502;2023-12-20T02:37:53;17.45;;;3.10;;
58260;SDS011;44058;52.898;6.502;2023-12-20T02:40:19;18.00;;;3.22;;
58260;SDS011;44058;52.898;6.502;2023-12-20T02:42:45;10.27;;;2.30;;
58260;SDS011;44058;52.898;6.502;2023-12-20T02:45:11;12.63;;;2.60;;
58260;SDS011;44058;52.898;6.502;2023-12-20T02:47:38;13.52;;;2.58;;
58260;SDS011;44058;52.898;6.502;2023-12-20T02:50:05;16.88;;;2.83;;
58260;SDS011;44058;52.898;6.502;2023-12-20T02:52:31;14.13;;;2.55;;
58260;SDS011;44058;52.898;6.502;2023-12-20T02:54:57;12.68;;;2.53;;
58260;SDS011;44058;52.898;6.502;2023-12-20T02:57:23;16.35;;;2.40;;
58260;SDS011;44058;52.898;6.502;2023-12-20T02:59:49;13.45;;;2.38;;
58260;SDS011;44058;52.898;6.502;2023-12-20T03:02:15;16.48;;;2.78;;
58260;SDS011;44058;52.898;6.502;2023-12-20T03:04:42;15.45;;;2.83;;
58260;SDS011;44058;52.898;6.502;2023-12-20T03:07:08;11.88;;;2.22;;
58260;SDS011;44058;52.898;6.502;2023-12-20T03:09:34;16.73;;;3.53;;
58260;SDS011;44058;52.898;6.502;2023-12-20T03:12:00;12.27;;;2.80;;
58260;SDS011;44058;52.898;6.502;2023-12-20T03:14:26;17.65;;;3.08;;
58260;SDS011;44058;52.898;6.502;2023-12-20T03:16:52;15.80;;;2.90;;
58260;SDS011;44058;52.898;6.502;2023-12-20T03:19:18;18.60;;;2.70;;
58260;SDS011;44058;52.898;6.502;2023-12-20T03:21:44;13.23;;;3.13;;
58260;SDS011;44058;52.898;6.502;2023-12-20T03:24:11;14.07;;;2.78;;
58260;SDS011;44058;52.898;6.502;2023-12-20T03:26:37;19.35;;;3.58;;
58260;SDS011;44058;52.898;6.502;2023-12-20T03:29:03;21.90;;;3.28;;
58260;SDS011;44058;52.898;6.502;2023-12-20T03:31:29;20.20;;;3.08;;
58260;SDS011;44058;52.898;6.502;2023-12-20T03:33:55;19.35;;;3.50;;
58260;SDS011;44058;52.898;6.502;2023-12-20T03:36:21;21.52;;;4.00;;
58260;SDS011;44058;52.898;6.502;2023-12-20T03:38:47;15.35;;;3.33;;
58260;SDS011;44058;52.898;6.502;2023-12-20T03:41:13;18.40;;;3.40;;
58260;SDS011;44058;52.898;6.502;2023-12-20T03:43:39;20.77;;;3.22;;
58260;SDS011;44058;52.898;6.502;2023-12-20T03:46:07;18.88;;;3.17;;
58260;SDS011;44058;52.898;6.502;2023-12-20T03:48:33;19.67;;;2.80;;
58260;SDS011;44058;52.898;6.502;2023-12-20T03:51:00;18.52;;;3.78;;
58260;SDS011;44058;52.898;6.502;2023-12-20T03:53:27;18.05;;;3.10;;
58260;SDS011;44058;52.898;6.502;2023-12-20T03:55:53;21.00;;;4.10;;
58260;SDS011;44058;52.898;6.502;2023-12-20T03:58:19;26.40;;;3.60;;
58260;SDS011;44058;52.898;6.502;2023-12-20T04:00:45;27.52;;;3.83;;
58260;SDS011;44058;52.898;6.502;2023-12-20T04:03:11;18.27;;;2.90;;
58260;SDS011;44058;52.898;6.502;2023-12-20T04:05:40;17.25;;;3.17;;
58260;SDS011;44058;52.898;6.502;2023-12-20T04:08:06;21.52;;;3.83;;
58260;SDS011;44058;52.898;6.502;2023-12-20T04:10:33;18.60;;;3.53;;
58260;SDS011;44058;52.898;6.502;2023-12-20T04:12:59;25.17;;;3.90;;
58260;SDS011;44058;52.898;6.502;2023-12-20T04:15:25;22.75;;;3.53;;
58260;SDS011;44058;52.898;6.502;2023-12-20T04:17:51;22.50;;;3.40;;
58260;SDS011;44058;52.898;6.502;2023-12-20T04:20:17;19.67;;;3.92;;
58260;SDS011;44058;52.898;6.502;2023-12-20T04:22:43;24.17;;;3.70;;
58260;SDS011;44058;52.898;6.502;2023-12-20T04:25:09;19.15;;;3.90;;
58260;SDS011;44058;52.898;6.502;2023-12-20T04:27:36;21.38;;;3.95;;
58260;SDS011;44058;52.898;6.502;2023-12-20T04:30:02;21.55;;;4.30;;
58260;SDS011;44058;52.898;6.502;2023-12-20T04:32:28;20.30;;;3.03;;
58260;SDS011;44058;52.898;6.502;2023-12-20T04:34:55;19.80;;;3.55;;
58260;SDS011;44058;52.898;6.502;2023-12-20T04:37:21;20.45;;;3.33;;
58260;SDS011;44058;52.898;6.502;2023-12-20T04:39:47;23.35;;;3.58;;
58260;SDS011;44058;52.898;6.502;2023-12-20T04:42:13;18.15;;;3.17;;
58260;SDS011;44058;52.898;6.502;2023-12-20T04:44:39;18.95;;;2.85;;
58260;SDS011;44058;52.898;6.502;2023-12-20T04:47:25;21.00;;;3.70;;
58260;SDS011;44058;52.898;6.502;2023-12-20T04:49:52;15.60;;;3.45;;
58260;SDS011;44058;52.898;6.502;2023-12-20T04:52:18;18.88;;;3.05;;
58260;SDS011;44058;52.898;6.502;2023-12-20T04:54:45;19.42;;;3.67;;
58260;SDS011;44058;52.898;6.502;2023-12-20T04:57:11;22.30;;;3.33;;
58260;SDS011;44058;52.898;6.502;2023-12-20T04:59:37;18.75;;;3.67;;
58260;SDS011;44058;52.898;6.502;2023-12-20T05:02:03;20.35;;;3.72;;
58260;SDS011;44058;52.898;6.502;2023-12-20T05:04:29;24.77;;;4.28;;
58260;SDS011;44058;52.898;6.502;2023-12-20T05:06:55;16.15;;;3.35;;
58260;SDS011;44058;52.898;6.502;2023-12-20T05:09:21;21.95;;;3.97;;
58260;SDS011;44058;52.898;6.502;2023-12-20T05:11:47;19.58;;;3.20;;
58260;SDS011;44058;52.898;6.502;2023-12-20T05:14:13;16.83;;;3.50;;
58260;SDS011;44058;52.898;6.502;2023-12-20T05:16:40;22.83;;;3.50;;
58260;SDS011;44058;52.898;6.502;2023-12-20T05:19:06;19.20;;;4.03;;
58260;SDS011;44058;52.898;6.502;2023-12-20T05:21:32;19.85;;;3.80;;
58260;SDS011;44058;52.898;6.502;2023-12-20T05:23:58;22.73;;;3.72;;
58260;SDS011;44058;52.898;6.502;2023-12-20T05:26:25;18.55;;;3.55;;
58260;SDS011;44058;52.898;6.502;2023-12-20T05:28:51;14.80;;;3.10;;
58260;SDS011;44058;52.898;6.502;2023-12-20T05:31:17;17.40;;;3.03;;
58260;SDS011;44058;52.898;6.502;2023-12-20T05:33:43;15.90;;;3.03;;
58260;SDS011;44058;52.898;6.502;2023-12-20T05:36:10;18.73;;;3.70;;
58260;SDS011;44058;52.898;6.502;2023-12-20T05:38:38;17.17;;;3.97;;
58260;SDS011;44058;52.898;6.502;2023-12-20T05:41:05;17.35;;;3.95;;
58260;SDS011;44058;52.898;6.502;2023-12-20T05:43:31;19.58;;;3.13;;
58260;SDS011;44058;52.898;6.502;2023-12-20T05:45:57;19.38;;;3.20;;
58260;SDS011;44058;52.898;6.502;2023-12-20T05:48:24;23.65;;;3.78;;
58260;SDS011;44058;52.898;6.502;2023-12-20T05:50:50;22.80;;;4.05;;
58260;SDS011;44058;52.898;6.502;2023-12-20T05:53:16;17.02;;;3.65;;
58260;SDS011;44058;52.898;6.502;2023-12-20T05:55:42;23.35;;;4.80;;
58260;SDS011;44058;52.898;6.502;2023-12-20T05:58:09;17.33;;;3.03;;
58260;SDS011;44058;52.898;6.502;2023-12-20T06:00:35;30.52;;;4.22;;
58260;SDS011;44058;52.898;6.502;2023-12-20T06:03:01;19.27;;;3.92;;
58260;SDS011;44058;52.898;6.502;2023-12-20T06:05:27;20.92;;;3.95;;
58260;SDS011;44058;52.898;6.502;2023-12-20T06:07:53;21.08;;;4.35;;
58260;SDS011;44058;52.898;6.502;2023-12-20T06:10:21;14.93;;;3.15;;
58260;SDS011;44058;52.898;6.502;2023-12-20T06:12:47;26.25;;;4.30;;
58260;SDS011;44058;52.898;6.502;2023-12-20T06:15:35;21.27;;;3.15;;
58260;SDS011;44058;52.898;6.502;2023-12-20T06:18:01;18.00;;;3.17;;
58260;SDS011;44058;52.898;6.502;2023-12-20T06:20:27;24.42;;;3.70;;
58260;SDS011;44058;52.898;6.502;2023-12-20T06:22:53;21.60;;;3.85;;
58260;SDS011;44058;52.898;6.502;2023-12-20T06:25:19;19.00;;;3.85;;
58260;SDS011;44058;52.898;6.502;2023-12-20T06:27:45;18.15;;;4.13;;
58260;SDS011;44058;52.898;6.502;2023-12-20T06:30:31;16.40;;;2.97;;
58260;SDS011;44058;52.898;6.502;2023-12-20T06:32:58;21.85;;;3.25;;
58260;SDS011;44058;52.898;6.502;2023-12-20T06:35:24;22.38;;;4.25;;
58260;SDS011;44058;52.898;6.502;2023-12-20T06:37:50;20.90;;;3.38;;
58260;SDS011;44058;52.898;6.502;2023-12-20T06:40:17;13.25;;;3.30;;
58260;SDS011;44058;52.898;6.502;2023-12-20T06:42:43;14.90;;;3.42;;
58260;SDS011;44058;52.898;6.502;2023-12-20T06:45:10;16.00;;;3.30;;
58260;SDS011;44058;52.898;6.502;2023-12-20T06:47:36;19.38;;;3.08;;
58260;SDS011;44058;52.898;6.502;2023-12-20T06:50:02;14.75;;;3.78;;
58260;SDS011;44058;52.898;6.502;2023-12-20T06:52:28;23.63;;;4.05;;
58260;SDS011;44058;52.898;6.502;2023-12-20T06:54:55;20.08;;;3.63;;
58260;SDS011;44058;52.898;6.502;2023-12-20T06:57:21;25.27;;;3.92;;
58260;SDS011;44058;52.898;6.502;2023-12-20T06:59:47;21.50;;;3.72;;
58260;SDS011;44058;52.898;6.502;2023-12-20T07:02:13;18.15;;;3.33;;
58260;SDS011;44058;52.898;6.502;2023-12-20T07:04:39;25.33;;;3.38;;
58260;SDS011;44058;52.898;6.502;2023-12-20T07:07:06;23.38;;;4.63;;
58260;SDS011;44058;52.898;6.502;2023-12-20T07:09:32;17.33;;;3.28;;
58260;SDS011;44058;52.898;6.502;2023-12-20T07:11:58;19.67;;;3.95;;
58260;SDS011;44058;52.898;6.502;2023-12-20T07:14:25;22.90;;;3.35;;
58260;SDS011;44058;52.898;6.502;2023-12-20T07:16:54;19.80;;;4.05;;
58260;SDS011;44058;52.898;6.502;2023-12-20T07:19:20;15.90;;;3.42;;
58260;SDS011;44058;52.898;6.502;2023-12-20T07:21:46;17.15;;;3.95;;
58260;SDS011;44058;52.898;6.502;2023-12-20T07:24:13;22.73;;;3.75;;
58260;SDS011;44058;52.898;6.502;2023-12-20T07:26:39;18.60;;;3.70;;
58260;SDS011;44058;52.898;6.502;2023-12-20T07:29:05;19.15;;;3.65;;
58260;SDS011;44058;52.898;6.502;2023-12-20T07:31:31;25.80;;;4.40;;
58260;SDS011;44058;52.898;6.502;2023-12-20T07:33:58;24.25;;;3.95;;
58260;SDS011;44058;52.898;6.502;2023-12-20T07:36:24;24.65;;;3.80;;
58260;SDS011;44058;52.898;6.502;2023-12-20T07:38:50;21.65;;;3.75;;
58260;SDS011;44058;52.898;6.502;2023-12-20T07:41:16;21.98;;;3.88;;
58260;SDS011;44058;52.898;6.502;2023-12-20T07:43:42;23.38;;;3.97;;
58260;SDS011;44058;52.898;6.502;2023-12-20T07:46:08;14.75;;;3.47;;
58260;SDS011;44058;52.898;6.502;2023-12-20T07:48:34;25.05;;;3.83;;
58260;SDS011;44058;52.898;6.502;2023-12-20T07:51:01;17.77;;;3.33;;
58260;SDS011;44058;52.898;6.502;2023-12-20T07:53:27;24.40;;;3.58;;
58260;SDS011;44058;52.898;6.502;2023-12-20T07:55:54;16.92;;;3.08;;
58260;SDS011;44058;52.898;6.502;2023-12-20T08:00:49;19.15;;;3.38;;
58260;SDS011;44058;52.898;6.502;2023-12-20T08:03:15;19.73;;;3.35;;
58260;SDS011;44058;52.898;6.502;2023-12-20T08:05:42;20.25;;;3.33;;
58260;SDS011;44058;52.898;6.502;2023-12-20T08:08:08;21.15;;;4.00;;
58260;SDS011;44058;52.898;6.502;2023-12-20T08:10:34;24.23;;;3.42;;
58260;SDS011;44058;52.898;6.502;2023-12-20T08:13:00;18.08;;;3.58;;
58260;SDS011;44058;52.898;6.502;2023-12-20T08:15:26;17.02;;;3.35;;
58260;SDS011;44058;52.898;6.502;2023-12-20T08:17:52;21.73;;;4.03;;
58260;SDS011;44058;52.898;6.502;2023-12-20T08:20:18;16.80;;;3.72;;
58260;SDS011;44058;52.898;6.502;2023-12-20T08:22:44;21.38;;;3.95;;
58260;SDS011;44058;52.898;6.502;2023-12-20T08:25:10;17.80;;;3.50;;
58260;SDS011;44058;52.898;6.502;2023-12-20T08:27:39;21.25;;;3.90;;
58260;SDS011;44058;52.898;6.502;2023-12-20T08:30:07;19.00;;;3.38;;
58260;SDS011;44058;52.898;6.502;2023-12-20T08:32:34;19.25;;;3.60;;
58260;SDS011;44058;52.898;6.502;2023-12-20T08:35:00;25.60;;;4.25;;
58260;SDS011;44058;52.898;6.502;2023-12-20T08:37:26;17.13;;;3.83;;
58260;SDS011;44058;52.898;6.502;2023-12-20T08:39:52;23.08;;;3.80;;
58260;SDS011;44058;52.898;6.502;2023-12-20T08:42:18;18.65;;;3.38;;
58260;SDS011;44058;52.898;6.502;2023-12-20T08:44:44;20.30;;;3.95;;
58260;SDS011;44058;52.898;6.502;2023-12-20T08:47:11;25.05;;;3.40;;
58260;SDS011;44058;52.898;6.502;2023-12-20T08:49:39;18.67;;;3.38;;
58260;SDS011;44058;52.898;6.502;2023-12-20T08:52:07;15.43;;;3.40;;
58260;SDS011;44058;52.898;6.502;2023-12-20T08:54:34;17.65;;;3.33;;
58260;SDS011;44058;52.898;6.502;2023-12-20T08:57:01;22.42;;;3.38;;
58260;SDS011;44058;52.898;6.502;2023-12-20T08:59:27;20.13;;;3.92;;
58260;SDS011;44058;52.898;6.502;2023-12-20T09:01:53;17.92;;;3.65;;
58260;SDS011;44058;52.898;6.502;2023-12-20T09:04:41;18.48;;;4.15;;
58260;SDS011;44058;52.898;6.502;2023-12-20T09:07:20;23.52;;;4.28;;
58260;SDS011;44058;52.898;6.502;2023-12-20T09:09:46;19.52;;;3.13;;
58260;SDS011;44058;52.898;6.502;2023-12-20T09:12:12;18.63;;;3.22;;
58260;SDS011;44058;52.898;6.502;2023-12-20T09:14:38;15.40;;;3.65;;
58260;SDS011;44058;52.898;6.502;2023-12-20T09:17:04;17.02;;;3.08;;
58260;SDS011;44058;52.898;6.502;2023-12-20T09:19:53;19.02;;;3.28;;
58260;SDS011;44058;52.898;6.502;2023-12-20T09:22:19;21.02;;;4.13;;
58260;SDS011;44058;52.898;6.502;2023-12-20T09:24:45;20.40;;;3.40;;
58260;SDS011;44058;52.898;6.502;2023-12-20T09:27:31;15.52;;;2.92;;
58260;SDS011;44058;52.898;6.502;2023-12-20T09:29:57;15.90;;;3.47;;
58260;SDS011;44058;52.898;6.502;2023-12-20T09:32:23;15.63;;;2.90;;
58260;SDS011;44058;52.898;6.502;2023-12-20T09:34:49;12.35;;;3.13;;
58260;SDS011;44058;52.898;6.502;2023-12-20T09:37:15;14.95;;;2.80;;
58260;SDS011;44058;52.898;6.502;2023-12-20T09:39:42;13.10;;;2.78;;
58260;SDS011;44058;52.898;6.502;2023-12-20T09:42:08;12.65;;;2.00;;
58260;SDS011;44058;52.898;6.502;2023-12-20T09:44:37;6.85;;;1.60;;
58260;SDS011;44058;52.898;6.502;2023-12-20T09:47:07;6.80;;;1.00;;
58260;SDS011;44058;52.898;6.502;2023-12-20T09:49:33;6.45;;;1.27;;
58260;SDS011;44058;52.898;6.502;2023-12-20T09:52:00;5.20;;;1.35;;
58260;SDS011;44058;52.898;6.502;2023-12-20T09:54:27;3.75;;;1.00;;
58260;SDS011;44058;52.898;6.502;2023-12-20T09:56:54;5.55;;;0.93;;
58260;SDS011;44058;52.898;6.502;2023-12-20T09:59:20;7.13;;;1.40;;
58260;SDS011;44058;52.898;6.502;2023-12-20T10:01:46;5.93;;;1.13;;
58260;SDS011;44058;52.898;6.502;2023-12-20T10:04:12;3.70;;;1.10;;
58260;SDS011;44058;52.898;6.502;2023-12-20T10:06:39;4.85;;;0.73;;
58260;SDS011;44058;52.898;6.502;2023-12-20T10:09:05;4.95;;;1.02;;
58260;SDS011;44058;52.898;6.502;2023-12-20T10:11:32;4.80;;;1.20;;
58260;SDS011;44058;52.898;6.502;2023-12-20T10:14:01;6.15;;;1.25;;
58260;SDS011;44058;52.898;6.502;2023-12-20T10:19:15;4.75;;;1.10;;
58260;SDS011;44058;52.898;6.502;2023-12-20T10:21:42;7.35;;;1.05;;
58260;SDS011;44058;52.898;6.502;2023-12-20T10:24:08;5.50;;;1.00;;
58260;SDS011;44058;52.898;6.502;2023-12-20T10:26:35;10.70;;;1.48;;
58260;SDS011;44058;52.898;6.502;2023-12-20T10:29:22;6.22;;;1.08;;
58260;SDS011;44058;52.898;6.502;2023-12-20T10:31:49;3.40;;;0.70;;
58260;SDS011;44058;52.898;6.502;2023-12-20T10:34:15;6.30;;;1.10;;
58260;SDS011;44058;52.898;6.502;2023-12-20T10:36:41;5.55;;;1.10;;
58260;SDS011;44058;52.898;6.502;2023-12-20T10:39:07;5.70;;;1.17;;
58260;SDS011;44058;52.898;6.502;2023-12-20T10:41:35;7.78;;;1.30;;
58260;SDS011;44058;52.898;6.502;2023-12-20T10:44:06;9.38;;;1.38;;
58260;SDS011;44058;52.898;6.502;2023-12-20T10:46:33;6.90;;;1.00;;
58260;SDS011;44058;52.898;6.502;2023-12-20T10:49:01;5.32;;;0.90;;
58260;SDS011;44058;52.898;6.502;2023-12-20T10:51:29;4.65;;;1.10;;
58260;SDS011;44058;52.898;6.502;2023-12-20T10:53:57;6.13;;;1.20;;
58260;SDS011;44058;52.898;6.502;2023-12-20T10:56:23;7.75;;;1.10;;
58260;SDS011;44058;52.898;6.502;2023-12-20T10:58:50;7.13;;;1.38;;
58260;SDS011;44058;52.898;6.502;2023-12-20T11:01:16;6.53;;;1.10;;
58260;SDS011;44058;52.898;6.502;2023-12-20T11:03:48;6.53;;;1.27;;
58260;SDS011;44058;52.898;6.502;2023-12-20T11:09:03;6.07;;;1.23;;
58260;SDS011;44058;52.898;6.502;2023-12-20T11:11:40;10.25;;;1.40;;
58260;SDS011;44058;52.898;6.502;2023-12-20T11:14:12;12.43;;;1.38;;
58260;SDS011;44058;52.898;6.502;2023-12-20T11:16:41;6.80;;;1.20;;
58260;SDS011;44058;52.898;6.502;2023-12-20T11:19:07;6.13;;;1.08;;
58260;SDS011;44058;52.898;6.502;2023-12-20T11:21:33;8.20;;;1.38;;
58260;SDS011;44058;52.898;6.502;2023-12-20T11:23:59;10.18;;;1.52;;
58260;SDS011;44058;52.898;6.502;2023-12-20T11:26:29;10.52;;;1.48;;
58260;SDS011;44058;52.898;6.502;2023-12-20T11:31:40;8.48;;;1.80;;
58260;SDS011;44058;52.898;6.502;2023-12-20T11:34:13;10.25;;;1.33;;
58260;SDS011;44058;52.898;6.502;2023-12-20T11:36:39;13.98;;;1.50;;
58260;SDS011;44058;52.898;6.502;2023-12-20T11:39:05;6.28;;;1.13;;
58260;SDS011;44058;52.898;6.502;2023-12-20T11:41:34;7.55;;;1.50;;
58260;SDS011;44058;52.898;6.502;2023-12-20T11:44:02;7.70;;;1.30;;
58260;SDS011;44058;52.898;6.502;2023-12-20T11:46:30;7.05;;;1.77;;
58260;SDS011;44058;52.898;6.502;2023-12-20T11:48:59;8.93;;;1.47;;
58260;SDS011;44058;52.898;6.502;2023-12-20T11:51:46;10.23;;;1.38;;
58260;SDS011;44058;52.898;6.502;2023-12-20T11:54:12;7.72;;;1.30;;
58260;SDS011;44058;52.898;6.502;2023-12-20T11:56:39;10.30;;;1.30;;
58260;SDS011;44058;52.898;6.502;2023-12-20T11:59:05;11.05;;;1.77;;
58260;SDS011;44058;52.898;6.502;2023-12-20T12:01:33;7.90;;;1.40;;
58260;SDS011;44058;52.898;6.502;2023-12-20T12:04:04;13.43;;;1.60;;
58260;SDS011;44058;52.898;6.502;2023-12-20T12:06:30;11.18;;;2.03;;
58260;SDS011;44058;52.898;6.502;2023-12-20T12:08:56;10.45;;;1.63;;
58260;SDS011;44058;52.898;6.502;2023-12-20T12:11:22;12.30;;;1.75;;
58260;SDS011;44058;52.898;6.502;2023-12-20T12:13:49;8.80;;;1.88;;
58260;SDS011;44058;52.898;6.502;2023-12-20T12:16:19;10.18;;;1.90;;
58260;SDS011;44058;52.898;6.502;2023-12-20T12:18:45;5.97;;;1.23;;
58260;SDS011;44058;52.898;6.502;2023-12-20T12:21:18;9.75;;;1.95;;
58260;SDS011;44058;52.898;6.502;2023-12-20T12:23:45;8.30;;;1.67;;
58260;SDS011;44058;52.898;6.502;2023-12-20T12:26:12;9.10;;;1.95;;
58260;SDS011;44058;52.898;6.502;2023-12-20T12:28:41;8.52;;;1.58;;
58260;SDS011;44058;52.898;6.502;2023-12-20T12:31:08;14.38;;;1.73;;
58260;SDS011;44058;52.898;6.502;2023-12-20T12:33:34;11.00;;;1.77;;
58260;SDS011;44058;52.898;6.502;2023-12-20T12:36:01;10.55;;;1.60;;
58260;SDS011;44058;52.898;6.502;2023-12-20T12:38:29;8.33;;;1.33;;
58260;SDS011;44058;52.898;6.502;2023-12-20T12:40:55;7.93;;;1.52;;
58260;SDS011;44058;52.898;6.502;2023-12-20T12:43:22;8.00;;;1.52;;
58260;SDS011;44058;52.898;6.502;2023-12-20T12:45:49;8.35;;;1.40;;
58260;SDS011;44058;52.898;6.502;2023-12-20T12:48:17;7.75;;;1.50;;
58260;SDS011;44058;52.898;6.502;2023-12-20T12:50:45;6.50;;;2.00;;
58260;SDS011;44058;52.898;6.502;2023-12-20T12:53:11;9.23;;;2.00;;
58260;SDS011;44058;52.898;6.502;2023-12-20T12:55:37;7.60;;;1.60;;
58260;SDS011;44058;52.898;6.502;2023-12-20T12:58:03;10.35;;;1.65;;
58260;SDS011;44058;52.898;6.502;2023-12-20T13:00:30;7.82;;;1.13;;
58260;SDS011;44058;52.898;6.502;2023-12-20T13:02:56;9.05;;;2.10;;
58260;SDS011;44058;52.898;6.502;2023-12-20T13:05:23;6.57;;;1.40;;
58260;SDS011;44058;52.898;6.502;2023-12-20T13:07:51;8.30;;;1.73;;
58260;SDS011;44058;52.898;6.502;2023-12-20T13:10:17;7.93;;;1.45;;
58260;SDS011;44058;52.898;6.502;2023-12-20T13:12:43;6.50;;;1.23;;
58260;SDS011;44058;52.898;6.502;2023-12-20T13:15:09;8.52;;;1.67;;
58260;SDS011;44058;52.898;6.502;2023-12-20T13:17:55;4.82;;;1.20;;
58260;SDS011;44058;52.898;6.502;2023-12-20T13:20:21;8.05;;;1.25;;
58260;SDS011;44058;52.898;6.502;2023-12-20T13:22:47;8.77;;;1.63;;
58260;SDS011;44058;52.898;6.502;2023-12-20T13:25:13;5.47;;;1.30;;
58260;SDS011;44058;52.898;6.502;2023-12-20T13:27:40;9.05;;;1.52;;
58260;SDS011;44058;52.898;6.502;2023-12-20T13:30:07;5.93;;;1.52;;
58260;SDS011;44058;52.898;6.502;2023-12-20T13:32:33;8.27;;;1.25;;
58260;SDS011;44058;52.898;6.502;2023-12-20T13:34:59;11.30;;;1.70;;
58260;SDS011;44058;52.898;6.502;2023-12-20T13:37:25;8.23;;;1.48;;
58260;SDS011;44058;52.898;6.502;2023-12-20T13:39:51;7.60;;;1.55;;
58260;SDS011;44058;52.898;6.502;2023-12-20T13:42:17;7.07;;;1.42;;
58260;SDS011;44058;52.898;6.502;2023-12-20T13:44:46;9.85;;;1.73;;
58260;SDS011;44058;52.898;6.502;2023-12-20T13:47:12;7.75;;;1.50;;
58260;SDS011;44058;52.898;6.502;2023-12-20T13:49:38;11.15;;;2.05;;
58260;SDS011;44058;52.898;6.502;2023-12-20T13:52:04;8.40;;;2.03;;
58260;SDS011;44058;52.898;6.502;2023-12-20T13:54:31;6.88;;;1.33;;
58260;SDS011;44058;52.898;6.502;2023-12-20T13:56:57;7.75;;;1.63;;
58260;SDS011;44058;52.898;6.502;2023-12-20T13:59:24;6.38;;;1.50;;
58260;SDS011;44058;52.898;6.502;2023-12-20T14:01:51;8.40;;;1.98;;
58260;SDS011;44058;52.898;6.502;2023-12-20T14:04:37;6.97;;;2.28;;
58260;SDS011;44058;52.898;6.502;2023-12-20T14:07:04;8.85;;;1.65;;
58260;SDS011;44058;52.898;6.502;2023-12-20T14:09:32;9.07;;;1.45;;
58260;SDS011;44058;52.898;6.502;2023-12-20T14:11:59;7.03;;;1.58;;
58260;SDS011;44058;52.898;6.502;2023-12-20T14:14:25;7.50;;;1.50;;
58260;SDS011;44058;52.898;6.502;2023-12-20T14:16:51;7.28;;;1.80;;
58260;SDS011;44058;52.898;6.502;2023-12-20T14:19:17;7.60;;;1.60;;
58260;SDS011;44058;52.898;6.502;2023-12-20T14:21:43;8.13;;;1.42;;
58260;SDS011;44058;52.898;6.502;2023-12-20T14:24:13;6.05;;;1.52;;
58260;SDS011;44058;52.898;6.502;2023-12-20T14:26:40;9.10;;;2.20;;
58260;SDS011;44058;52.898;6.502;2023-12-20T14:29:26;9.20;;;2.00;;
58260;SDS011;44058;52.898;6.502;2023-12-20T14:31:52;5.65;;;1.75;;
58260;SDS011;44058;52.898;6.502;2023-12-20T14:34:18;12.38;;;1.92;;
58260;SDS011;44058;52.898;6.502;2023-12-20T14:36:45;6.47;;;2.00;;
58260;SDS011;44058;52.898;6.502;2023-12-20T14:39:11;10.32;;;1.50;;
58260;SDS011;44058;52.898;6.502;2023-12-20T14:41:38;4.55;;;1.20;;
58260;SDS011;44058;52.898;6.502;2023-12-20T14:44:07;5.22;;;0.95;;
58260;SDS011;44058;52.898;6.502;2023-12-20T14:46:53;7.05;;;1.15;;
58260;SDS011;44058;52.898;6.502;2023-12-20T14:49:19;5.00;;;1.30;;